Time;durP1;ratioP1;P1;durP2;ratioP2;P2;SDS_P1;SDS_P2;PMS_P1;PMS_P2;Temp;Humidity;BMP_temperature;BMP_pressure;BME280_temperature;BME280_humidity;BME280_pressure;Samples;Min_cycle;Max_cycle;Signal;HPM_P1;HPM_P2
2023/03/10 00:01:33;;;;;;;1.02;1.02;;;;;;;20.38;33.04;98054.80;1858407;76;28177;-53
2023/03/10 00:04:21;;;;;;;1.20;1.20;;;;;;;20.38;33.04;98058.36;1855739;76;28286;-54
2023/03/10 00:07:10;;;;;;;1.00;1.00;;;;;;;20.38;33.03;98050.17;1850632;76;28149;-53
2023/03/10 00:09:58;;;;;;;1.00;1.00;;;;;;;20.40;33.02;98056.73;1847823;76;28237;-54
2023/03/10 00:12:47;;;;;;;1.35;1.27;;;;;;;20.35;33.05;98058.86;1845772;76;28213;-56
2023/03/10 00:15:35;;;;;;;1.07;1.07;;;;;;;20.36;33.08;98060.52;1825124;78;28214;-53
2023/03/10 00:18:24;;;;;;;1.20;1.20;;;;;;;20.36;33.08;98063.24;1837496;77;28208;-54
2023/03/10 00:21:22;;;;;;;1.20;1.20;;;;;;;20.36;33.09;98069.23;1846864;77;28184;-55
2023/03/10 00:24:10;;;;;;;1.20;1.20;;;;;;;20.34;33.12;98059.95;1847082;77;28095;-56
2023/03/10 00:26:59;;;;;;;1.00;1.00;;;;;;;20.32;33.16;98050.37;1826147;78;28250;-54
2023/03/10 00:29:51;;;;;;;1.20;1.20;;;;;;;20.31;33.15;98052.27;1838157;77;28172;-53
2023/03/10 00:32:40;;;;;;;1.10;1.10;;;;;;;20.30;33.21;98056.63;1861527;76;28225;-56
2023/03/10 00:35:29;;;;;;;1.07;1.00;;;;;;;20.31;33.22;98059.62;1858180;76;28146;-54
2023/03/10 00:38:17;;;;;;;1.00;1.00;;;;;;;20.31;33.21;98055.53;1843410;75;28157;-53
2023/03/10 00:41:08;;;;;;;1.30;1.20;;;;;;;20.33;33.18;98046.55;1838134;77;28098;-57
2023/03/10 00:43:57;;;;;;;0.93;0.93;;;;;;;20.29;33.19;98042.16;1849497;77;28601;-52
2023/03/10 00:46:45;;;;;;;1.00;1.00;;;;;;;20.30;33.23;98036.17;1846636;77;28168;-55
2023/03/10 00:49:34;;;;;;;1.30;1.30;;;;;;;20.30;33.24;98038.37;1843202;77;28158;-56
2023/03/10 00:52:23;;;;;;;1.10;1.10;;;;;;;20.31;33.24;98052.27;1855069;77;28161;-54
2023/03/10 00:55:12;;;;;;;0.80;0.80;;;;;;;20.31;33.22;98050.08;1856825;77;28186;-52
2023/03/10 00:58:01;;;;;;;1.05;1.05;;;;;;;20.35;33.18;98043.05;1837451;77;28122;-55
2023/03/10 01:00:49;;;;;;;0.85;0.85;;;;;;;20.35;33.13;98041.13;1851656;76;28131;-55
2023/03/10 01:03:38;;;;;;;1.00;1.00;;;;;;;20.33;33.19;98041.09;1860243;76;28145;-56
2023/03/10 01:06:26;;;;;;;1.05;1.05;;;;;;;20.33;33.21;98037.84;1858622;76;28214;-54
2023/03/10 01:09:16;;;;;;;1.10;1.10;;;;;;;20.31;33.26;98037.80;1836557;77;28180;-52
2023/03/10 01:12:07;;;;;;;0.90;0.90;;;;;;;20.31;33.22;98026.36;1850140;76;28226;-53
2023/03/10 01:14:55;;;;;;;1.20;1.10;;;;;;;20.31;33.27;98022.80;1840577;76;28246;-56
2023/03/10 01:17:43;;;;;;;1.00;1.00;;;;;;;20.33;33.25;98026.09;1848368;77;28146;-57
2023/03/10 01:20:34;;;;;;;0.95;0.95;;;;;;;20.29;33.29;98032.62;1851067;76;28175;-55
2023/03/10 01:23:25;;;;;;;1.00;1.00;;;;;;;20.30;33.24;98030.19;1838606;77;28072;-56
2023/03/10 01:26:13;;;;;;;1.00;1.00;;;;;;;20.29;33.34;98033.15;1828813;77;28352;-54
2023/03/10 01:29:01;;;;;;;0.80;0.80;;;;;;;20.30;33.25;98028.83;1858874;76;28219;-53
2023/03/10 01:31:50;;;;;;;1.10;1.10;;;;;;;20.32;33.26;98025.30;1854598;76;28082;-55
2023/03/10 01:34:38;;;;;;;0.90;0.90;;;;;;;20.31;33.29;98027.73;1848791;76;28093;-54
2023/03/10 01:37:27;;;;;;;1.02;1.02;;;;;;;20.31;33.29;98027.73;1836737;77;28240;-54
2023/03/10 01:40:17;;;;;;;1.00;1.00;;;;;;;20.32;33.26;98008.94;1852496;76;28258;-53
2023/03/10 01:43:33;;;;;;;1.00;1.00;;;;;;;20.33;33.23;97990.12;1862312;76;28218;-57
2023/03/10 01:46:33;;;;;;;0.90;0.90;;;;;;;20.31;33.25;97984.09;1878323;76;28149;-55
2023/03/10 01:49:35;;;;;;;1.00;1.00;;;;;;;20.26;33.34;97977.22;1860584;76;28137;-55
2023/03/10 01:52:26;;;;;;;0.85;0.85;;;;;;;20.27;33.35;97969.88;1853435;76;28086;-55
2023/03/10 01:55:20;;;;;;;1.05;1.05;;;;;;;20.24;33.36;97963.02;1874124;76;28111;-57
2023/03/10 01:58:10;;;;;;;0.90;0.90;;;;;;;20.30;33.34;97969.38;1867965;76;28170;-55
2023/03/10 02:00:59;;;;;;;0.80;0.80;;;;;;;20.27;33.34;97967.98;1877027;76;28486;-55
2023/03/10 02:04:00;;;;;;;1.00;1.00;;;;;;;20.32;33.29;97981.67;1868409;76;28160;-54
2023/03/10 02:06:50;;;;;;;1.00;1.00;;;;;;;20.34;33.31;97973.22;1868220;76;28165;-54
2023/03/10 02:09:42;;;;;;;0.90;0.90;;;;;;;20.29;33.33;97972.63;1867768;76;28098;-58
2023/03/10 02:12:30;;;;;;;0.90;0.90;;;;;;;20.31;33.31;97955.47;1846453;77;28147;-58
2023/03/10 02:15:20;;;;;;;1.00;1.00;;;;;;;20.31;33.32;97942.37;1859255;76;28044;-56
2023/03/10 02:18:11;;;;;;;0.80;0.80;;;;;;;20.33;33.27;97928.77;1856836;76;28199;-56
2023/03/10 02:21:08;;;;;;;0.90;0.90;;;;;;;20.33;33.28;97920.58;1857165;76;28259;-54
2023/03/10 02:24:19;;;;;;;1.20;1.10;;;;;;;20.33;33.29;97914.30;1859114;76;28214;-55
2023/03/10 02:27:16;;;;;;;1.00;1.00;;;;;;;20.30;33.29;97904.76;1878200;76;28148;-54
2023/03/10 02:30:32;;;;;;;0.98;0.98;;;;;;;20.26;33.34;97900.05;1863838;76;28178;-54
2023/03/10 02:33:24;;;;;;;0.95;0.95;;;;;;;20.26;33.41;97906.33;1861302;76;28133;-56
2023/03/10 02:36:23;;;;;;;1.00;1.00;;;;;;;20.26;33.42;97886.41;1856996;76;28203;-56
2023/03/10 02:39:12;;;;;;;0.93;0.93;;;;;;;20.28;33.38;97888.38;1872311;76;28240;-54
2023/03/10 02:42:00;;;;;;;0.90;0.90;;;;;;;20.28;33.40;97885.08;1868258;76;28144;-52
2023/03/10 02:44:50;;;;;;;0.80;0.80;;;;;;;20.29;33.38;97871.74;1862780;76;28582;-56
2023/03/10 02:47:39;;;;;;;0.80;0.80;;;;;;;20.31;33.34;97861.39;1857190;76;28109;-54
2023/03/10 02:50:30;;;;;;;0.93;0.93;;;;;;;20.31;33.32;97870.94;1873078;74;28323;-53
2023/03/10 02:53:23;;;;;;;0.90;0.90;;;;;;;20.31;33.34;97864.12;1868368;76;28101;-54
2023/03/10 02:56:12;;;;;;;0.90;0.90;;;;;;;20.30;33.38;97855.68;1878347;76;28059;-55
2023/03/10 02:59:03;;;;;;;0.90;0.90;;;;;;;20.32;33.40;97842.61;1858775;76;28172;-54
2023/03/10 03:01:53;;;;;;;0.80;0.80;;;;;;;20.27;33.35;97820.74;1856803;76;28226;-56
2023/03/10 03:04:42;;;;;;;0.90;0.90;;;;;;;20.30;33.37;97834.40;1856701;76;28705;-55
2023/03/10 03:07:30;;;;;;;0.90;0.90;;;;;;;20.33;33.31;97822.95;1861727;76;28198;-56
2023/03/10 03:10:20;;;;;;;0.80;0.80;;;;;;;20.31;33.32;97806.03;1857105;76;28720;-55
2023/03/10 03:13:09;;;;;;;0.90;0.90;;;;;;;20.32;33.32;97796.25;1851345;76;28910;-52
2023/03/10 03:15:59;;;;;;;0.88;0.88;;;;;;;20.34;33.30;97800.06;1868007;76;28110;-54
2023/03/10 03:18:48;;;;;;;0.80;0.80;;;;;;;20.32;33.33;97802.23;1878318;76;28103;-53
2023/03/10 03:21:38;;;;;;;0.90;0.90;;;;;;;20.33;33.33;97777.95;1846257;76;28168;-52
2023/03/10 03:24:27;;;;;;;0.82;0.80;;;;;;;20.32;33.31;97763.53;1849188;76;28239;-52
2023/03/10 03:27:16;;;;;;;1.00;1.00;;;;;;;20.28;33.33;97733.75;1858793;76;28234;-54
2023/03/10 03:30:09;;;;;;;0.70;0.70;;;;;;;20.35;33.30;97762.19;1860398;76;28184;-55
2023/03/10 03:33:00;;;;;;;0.88;0.88;;;;;;;20.37;33.29;97738.20;1878116;76;28164;-55
2023/03/10 03:35:49;;;;;;;0.70;0.70;;;;;;;20.36;33.32;97733.81;1852635;76;28190;-58
2023/03/10 03:38:38;;;;;;;1.10;1.00;;;;;;;20.36;33.27;97721.02;1866440;76;28387;-56
2023/03/10 03:41:28;;;;;;;0.90;0.90;;;;;;;20.37;33.28;97739.56;1860900;76;28221;-56
2023/03/10 03:44:16;;;;;;;0.88;0.88;;;;;;;20.35;33.32;97754.80;1869293;76;28138;-55
2023/03/10 03:47:07;;;;;;;1.00;1.00;;;;;;;20.32;33.35;97737.63;1850052;76;28141;-53
2023/03/10 03:49:55;;;;;;;0.70;0.70;;;;;;;20.35;33.34;97738.44;1878420;76;28164;-56
2023/03/10 03:52:44;;;;;;;0.93;0.93;;;;;;;20.35;33.29;97700.83;1846312;77;28173;-56
2023/03/10 03:55:34;;;;;;;0.80;0.80;;;;;;;20.35;33.27;97708.45;1855630;76;28066;-56
2023/03/10 03:58:23;;;;;;;0.68;0.68;;;;;;;20.34;33.28;97718.27;1874716;76;28133;-54
2023/03/10 04:01:11;;;;;;;0.70;0.70;;;;;;;20.35;33.33;97718.56;1846448;77;28196;-58
2023/03/10 04:04:02;;;;;;;0.60;0.60;;;;;;;20.33;33.30;97743.34;1860102;76;28056;-55
2023/03/10 04:06:51;;;;;;;0.70;0.70;;;;;;;20.36;33.32;97753.73;1857024;76;28582;-51
2023/03/10 04:09:41;;;;;;;0.70;0.70;;;;;;;20.34;33.31;97738.18;1876394;76;28524;-56
2023/03/10 04:12:29;;;;;;;0.62;0.62;;;;;;;20.37;33.31;97742.29;1864437;76;28106;-52
2023/03/10 04:15:19;;;;;;;0.55;0.55;;;;;;;20.35;33.33;97732.98;1846422;77;28206;-57
2023/03/10 04:18:09;;;;;;;0.70;0.70;;;;;;;20.36;33.36;97739.27;1867629;76;28129;-55
2023/03/10 04:20:58;;;;;;;0.78;0.78;;;;;;;20.35;33.33;97711.17;1867634;76;28068;-55
2023/03/10 04:23:47;;;;;;;0.88;0.88;;;;;;;20.35;33.35;97709.81;1864515;76;28126;-53
2023/03/10 04:26:37;;;;;;;0.70;0.70;;;;;;;20.35;33.36;97685.27;1859008;76;28134;-54
2023/03/10 04:29:26;;;;;;;0.90;0.90;;;;;;;20.35;33.32;97677.09;1856665;76;28055;-52
2023/03/10 04:32:17;;;;;;;0.80;0.80;;;;;;;20.34;33.35;97674.10;1856692;76;28182;-54
2023/03/10 04:35:07;;;;;;;0.70;0.70;;;;;;;20.34;33.13;97676.83;1860893;76;28121;-54
2023/03/10 04:37:55;;;;;;;0.68;0.68;;;;;;;20.34;33.13;97676.83;1846586;77;28180;-57
2023/03/10 04:40:45;;;;;;;0.80;0.80;;;;;;;20.35;33.35;97671.64;1846574;77;28162;-55
2023/03/10 04:43:34;;;;;;;0.73;0.73;;;;;;;20.36;33.36;97664.28;1847993;77;28166;-54
2023/03/10 04:46:22;;;;;;;0.65;0.65;;;;;;;20.36;33.35;97662.38;1841647;77;28147;-57
2023/03/10 04:49:14;;;;;;;0.80;0.80;;;;;;;20.38;33.33;97671.66;1836254;77;28088;-53
2023/03/10 04:52:01;;;;;;;0.70;0.70;;;;;;;20.36;33.33;97652.84;1836091;77;28129;-53
2023/03/10 04:54:50;;;;;;;0.75;0.75;;;;;;;20.34;33.35;97661.83;1856696;77;28144;-54
2023/03/10 04:57:39;;;;;;;0.80;0.80;;;;;;;20.34;33.38;97640.55;1842510;77;28111;-51
2023/03/10 05:00:28;;;;;;;0.80;0.80;;;;;;;20.36;33.34;97644.66;1846298;77;28303;-54
2023/03/10 05:03:17;;;;;;;0.70;0.70;;;;;;;20.37;33.31;97626.40;1850775;77;28148;-55
2023/03/10 05:06:14;;;;;;;1.50;0.80;;;;;;;20.35;33.35;97641.64;1849421;76;28200;-55
2023/03/10 05:09:05;;;;;;;0.78;0.78;;;;;;;20.39;33.33;97674.67;1868578;76;28110;-55
2023/03/10 05:11:54;;;;;;;1.30;0.70;;;;;;;20.39;33.32;97677.40;1847887;76;28232;-54
2023/03/10 05:14:43;;;;;;;0.80;0.80;;;;;;;20.37;33.37;97681.77;1831931;77;28224;-55
2023/03/10 05:17:32;;;;;;;0.70;0.70;;;;;;;20.39;33.37;97674.67;1846106;77;28634;-53
2023/03/10 05:20:21;;;;;;;0.95;0.60;;;;;;;20.37;33.33;97689.12;1841871;77;28169;-54
2023/03/10 05:23:10;;;;;;;0.70;0.70;;;;;;;20.37;33.36;97680.40;1867837;76;28197;-55
2023/03/10 05:26:01;;;;;;;0.62;0.62;;;;;;;20.37;33.35;97680.94;1836683;77;28192;-54
2023/03/10 05:28:49;;;;;;;0.80;0.80;;;;;;;20.37;33.36;97655.03;1848639;76;28194;-56
2023/03/10 05:31:40;;;;;;;0.70;0.70;;;;;;;20.36;33.38;97682.84;1852521;76;28092;-56
2023/03/10 05:34:31;;;;;;;0.80;0.80;;;;;;;20.38;33.37;97687.48;1859513;76;28227;-56
2023/03/10 05:37:21;;;;;;;0.70;0.70;;;;;;;20.39;33.31;97671.95;1858179;76;28279;-56
2023/03/10 05:40:13;;;;;;;0.70;0.70;;;;;;;20.37;33.37;97666.77;1846196;77;28216;-55
2023/03/10 05:43:02;;;;;;;0.70;0.70;;;;;;;20.39;33.39;97672.77;1852742;76;28104;-54
2023/03/10 05:45:56;;;;;;;1.42;0.70;;;;;;;20.37;33.43;97654.50;1858928;76;28251;-57
2023/03/10 05:48:45;;;;;;;0.80;0.80;;;;;;;20.39;33.41;97653.69;1858163;76;28266;-53
2023/03/10 05:51:34;;;;;;;0.70;0.70;;;;;;;20.36;33.40;97655.56;1858417;76;28099;-54
2023/03/10 05:54:24;;;;;;;0.70;0.70;;;;;;;20.38;33.39;97692.10;1851929;76;28045;-53
2023/03/10 05:57:12;;;;;;;0.60;0.60;;;;;;;20.40;33.38;97722.66;1859683;76;28237;-56
2023/03/10 06:00:02;;;;;;;0.75;0.75;;;;;;;20.41;33.31;97693.78;1840882;76;28219;-54
2023/03/10 06:02:52;;;;;;;0.60;0.60;;;;;;;20.36;33.41;97685.56;1849715;76;28215;-55
2023/03/10 06:05:40;;;;;;;0.70;0.53;;;;;;;20.40;33.41;97680.39;1850849;76;32111;-56
2023/03/10 06:08:29;;;;;;;0.70;0.70;;;;;;;20.38;33.46;97676.57;1861719;76;28211;-56
2023/03/10 06:11:17;;;;;;;0.60;0.60;;;;;;;20.39;33.41;97690.50;1858785;76;28204;-56
2023/03/10 06:14:06;;;;;;;0.90;0.70;;;;;;;20.41;33.37;97684.77;1853952;76;28068;-56
2023/03/10 06:16:55;;;;;;;0.70;0.70;;;;;;;20.40;33.39;97684.48;1848245;76;28126;-57
2023/03/10 06:19:43;;;;;;;0.50;0.50;;;;;;;20.41;33.36;97673.86;1847798;76;28117;-58
2023/03/10 06:22:32;;;;;;;0.70;0.70;;;;;;;20.41;33.40;97696.51;1868817;76;28168;-54
2023/03/10 06:25:20;;;;;;;0.60;0.60;;;;;;;20.40;33.39;97675.76;1868844;76;28177;-57
2023/03/10 06:28:10;;;;;;;0.60;0.60;;;;;;;20.38;33.40;97695.66;1868724;76;28126;-56
2023/03/10 06:31:00;;;;;;;0.68;0.68;;;;;;;20.40;33.41;97698.94;1848005;76;28252;-55
2023/03/10 06:33:49;;;;;;;0.60;0.60;;;;;;;20.42;33.40;97700.06;1848195;76;28146;-55
2023/03/10 06:36:39;;;;;;;0.60;0.60;;;;;;;20.41;33.41;97714.77;1852652;76;28143;-56
2023/03/10 06:39:27;;;;;;;0.63;0.60;;;;;;;20.40;33.38;97688.03;1858815;76;28274;-55
2023/03/10 06:42:16;;;;;;;0.50;0.50;;;;;;;20.37;33.41;97699.48;1858828;76;28216;-55
2023/03/10 06:45:05;;;;;;;0.50;0.50;;;;;;;20.39;33.42;97721.03;1857402;76;28076;-52
2023/03/10 06:47:54;;;;;;;0.60;0.60;;;;;;;20.41;33.41;97718.32;1854394;76;28174;-56
2023/03/10 06:50:48;;;;;;;0.60;0.60;;;;;;;20.43;33.40;97717.52;1855391;77;28122;-53
2023/03/10 06:53:36;;;;;;;0.60;0.60;;;;;;;20.41;33.36;97727.87;1857229;77;28068;-51
2023/03/10 06:56:24;;;;;;;0.53;0.53;;;;;;;20.43;33.39;97726.23;1837634;77;28212;-51
2023/03/10 06:59:12;;;;;;;0.55;0.55;;;;;;;20.43;33.35;97732.52;1839706;77;28104;-52
2023/03/10 07:02:01;;;;;;;0.60;0.60;;;;;;;20.41;33.33;97736.05;1856824;77;28084;-54
2023/03/10 07:04:49;;;;;;;0.50;0.50;;;;;;;20.42;33.32;97741.77;1836328;77;28171;-55
2023/03/10 07:07:38;;;;;;;0.78;0.78;;;;;;;20.41;33.29;97748.32;1839221;77;28209;-56
2023/03/10 07:10:27;;;;;;;0.60;0.60;;;;;;;20.43;33.30;97750.23;1838446;77;28161;-54
2023/03/10 07:13:16;;;;;;;0.50;0.50;;;;;;;20.44;33.31;97770.95;1836335;77;28053;-53
2023/03/10 07:16:05;;;;;;;0.57;0.57;;;;;;;20.45;33.31;97772.61;1836115;77;28369;-56
2023/03/10 07:18:54;;;;;;;0.40;0.40;;;;;;;20.44;33.29;97761.98;1839916;77;28204;-55
2023/03/10 07:21:42;;;;;;;0.40;0.40;;;;;;;20.44;33.29;97780.50;1837271;77;28107;-54
2023/03/10 07:24:31;;;;;;;0.40;0.40;;;;;;;20.43;33.30;97802.05;1851745;77;28173;-57
2023/03/10 07:27:19;;;;;;;0.40;0.40;;;;;;;20.42;33.30;97797.67;1846347;77;28041;-54
2023/03/10 07:30:09;;;;;;;0.65;0.65;;;;;;;20.44;33.28;97805.61;1840662;77;28155;-53
2023/03/10 07:32:57;;;;;;;0.50;0.50;;;;;;;20.46;33.30;97826.63;1847471;77;28208;-55
2023/03/10 07:35:46;;;;;;;0.68;0.68;;;;;;;20.45;33.25;97816.78;1829682;77;28134;-54
2023/03/10 07:38:35;;;;;;;0.40;0.40;;;;;;;20.45;33.27;97836.70;1857023;77;28173;-53
2023/03/10 07:41:23;;;;;;;0.55;0.55;;;;;;;20.45;33.25;97844.89;1843861;77;28197;-56
2023/03/10 07:44:12;;;;;;;0.50;0.50;;;;;;;20.44;33.30;97847.88;1858673;76;28201;-53
2023/03/10 07:47:00;;;;;;;0.47;0.47;;;;;;;20.47;33.28;97845.44;1846312;77;28186;-54
2023/03/10 07:49:48;;;;;;;0.60;0.60;;;;;;;20.47;33.24;97844.08;1843623;77;28159;-57
2023/03/10 07:52:37;;;;;;;0.50;0.50;;;;;;;20.46;33.24;97853.36;1868676;76;28384;-57
2023/03/10 07:55:25;;;;;;;0.50;0.50;;;;;;;20.47;33.24;97847.34;1850436;77;28203;-54
2023/03/10 07:58:14;;;;;;;0.70;0.70;;;;;;;20.48;33.23;97857.19;1858218;76;28128;-55
2023/03/10 08:01:03;;;;;;;0.50;0.50;;;;;;;20.50;33.21;97859.10;1792045;79;28189;-55
2023/03/10 08:03:51;;;;;;;0.60;0.60;;;;;;;20.48;33.23;97862.64;1788835;79;28295;-56
2023/03/10 08:06:40;;;;;;;0.50;0.50;;;;;;;20.46;33.19;97865.63;1837755;76;28080;-53
2023/03/10 08:09:32;;;;;;;0.40;0.40;;;;;;;20.47;33.22;97864.53;1857042;77;28351;-55
2023/03/10 08:12:22;;;;;;;0.42;0.42;;;;;;;20.48;33.22;97880.36;1853561;76;28056;-54
2023/03/10 08:15:12;;;;;;;0.50;0.50;;;;;;;20.50;33.20;97888.58;1836676;77;28158;-54
2023/03/10 08:18:04;;;;;;;0.40;0.40;;;;;;;20.50;33.18;97885.02;1835973;77;28065;-54
2023/03/10 08:20:50;;;;;;;0.40;0.40;;;;;;;20.48;33.19;97877.10;1836620;77;28266;-54
2023/03/10 08:23:38;;;;;;;0.47;0.47;;;;;;;20.41;33.22;97880.59;1841048;77;28126;-55
2023/03/10 08:26:27;;;;;;;0.57;0.57;;;;;;;20.48;33.23;97893.47;1847526;77;28134;-55
2023/03/10 08:29:15;;;;;;;0.40;0.40;;;;;;;20.51;33.16;97921.56;1850597;77;28155;-55
2023/03/10 08:32:05;;;;;;;0.40;0.40;;;;;;;20.51;33.13;97920.77;1838290;77;28247;-56
2023/03/10 08:34:53;;;;;;;0.50;0.50;;;;;;;20.53;33.13;97935.80;1839404;77;28169;-54
2023/03/10 08:37:42;;;;;;;0.40;0.40;;;;;;;20.52;33.12;97930.05;1836413;77;28150;-51
2023/03/10 08:40:31;;;;;;;0.50;0.50;;;;;;;20.53;33.10;97938.52;1854994;77;28085;-53
2023/03/10 08:43:19;;;;;;;0.68;0.68;;;;;;;20.50;33.11;97941.76;1855240;76;28076;-57
2023/03/10 08:46:09;;;;;;;0.50;0.50;;;;;;;20.52;33.10;97931.41;1849823;75;28126;-55
2023/03/10 08:48:59;;;;;;;0.40;0.40;;;;;;;20.50;33.14;97929.48;1847669;76;28118;-57
2023/03/10 08:51:47;;;;;;;0.57;0.57;;;;;;;20.50;33.15;97924.56;1846812;76;28231;-51
2023/03/10 08:54:35;;;;;;;0.40;0.40;;;;;;;20.52;33.14;97923.23;1854613;76;28100;-51
2023/03/10 08:57:23;;;;;;;0.50;0.50;;;;;;;20.52;33.09;97922.40;1837631;77;28206;-55
2023/03/10 09:00:13;;;;;;;0.40;0.40;;;;;;;20.51;33.13;97943.39;1858575;76;28163;-56
2023/03/10 09:03:02;;;;;;;0.50;0.50;;;;;;;20.52;33.14;97956.49;1858590;76;28133;-52
2023/03/10 09:05:51;;;;;;;0.50;0.50;;;;;;;20.52;33.13;97973.69;1853223;76;28166;-53
2023/03/10 09:08:40;;;;;;;0.50;0.50;;;;;;;20.53;33.14;97981.34;1868479;76;28220;-55
2023/03/10 09:11:32;;;;;;;0.53;0.53;;;;;;;20.52;33.09;97985.97;1847954;76;28525;-54
2023/03/10 09:14:20;;;;;;;0.50;0.50;;;;;;;20.54;33.12;97990.62;1847882;76;28166;-55
2023/03/10 09:17:09;;;;;;;0.30;0.30;;;;;;;20.53;33.10;98002.63;1852925;76;28089;-53
2023/03/10 09:19:57;;;;;;;0.50;0.50;;;;;;;20.53;33.12;97999.06;1847866;76;28159;-57
2023/03/10 09:22:45;;;;;;;0.57;0.57;;;;;;;20.52;33.11;98000.97;1847445;76;28151;-57
2023/03/10 09:25:34;;;;;;;0.70;0.50;;;;;;;20.52;33.13;98002.33;1848868;76;28200;-57
2023/03/10 09:28:23;;;;;;;0.40;0.40;;;;;;;20.56;33.11;98020.39;1851228;76;28099;-54
2023/03/10 09:31:14;;;;;;;0.55;0.55;;;;;;;20.55;33.12;98022.28;1839568;76;28237;-54
2023/03/10 09:34:03;;;;;;;0.70;0.70;;;;;;;20.55;33.10;98018.73;1840421;76;28138;-55
2023/03/10 09:36:51;;;;;;;0.60;0.60;;;;;;;20.53;33.11;98024.45;1868785;76;28080;-54
2023/03/10 09:39:39;;;;;;;0.57;0.57;;;;;;;20.54;33.13;98038.36;1850510;76;28052;-54
2023/03/10 09:42:49;;;;;;;0.50;0.50;;;;;;;20.52;33.10;98030.97;1847739;76;28064;-56
2023/03/10 09:46:06;;;;;;;0.60;0.50;;;;;;;20.56;33.12;98029.94;1848203;76;36202;-54
2023/03/10 09:49:06;;;;;;;0.42;0.42;;;;;;;20.53;33.13;98034.53;1830997;76;28166;-55
2023/03/10 09:51:54;;;;;;;0.60;0.60;;;;;;;20.51;33.18;98029.88;1839448;76;28130;-51
2023/03/10 09:55:04;;;;;;;0.50;0.50;;;;;;;20.51;33.15;98043.52;1856731;77;28060;-56
2023/03/10 09:57:54;;;;;;;1.30;0.50;;;;;;;20.52;33.21;98041.88;1868660;76;28063;-53
2023/03/10 10:00:44;;;;;;;0.55;0.55;;;;;;;20.51;33.20;98063.97;1838209;77;28131;-55
2023/03/10 10:03:38;;;;;;;0.67;0.67;;;;;;;20.51;33.20;98058.52;1849966;77;28201;-54
2023/03/10 10:06:29;;;;;;;0.50;0.50;;;;;;;20.54;33.16;98061.54;1860892;76;28064;-55
2023/03/10 10:09:24;;;;;;;0.50;0.50;;;;;;;20.55;33.13;98062.38;1850300;76;28207;-53
2023/03/10 10:12:15;;;;;;;0.70;0.70;;;;;;;20.54;33.13;98067.53;1840365;77;28151;-55
2023/03/10 10:15:18;;;;;;;0.55;0.55;;;;;;;20.54;33.12;98067.53;1847696;76;28126;-58
2023/03/10 10:18:15;;;;;;;0.55;0.55;;;;;;;20.54;33.16;98072.45;1862371;76;28166;-56
2023/03/10 10:21:15;;;;;;;0.60;0.60;;;;;;;20.55;33.14;98071.39;1861334;76;28130;-52
2023/03/10 10:24:04;;;;;;;0.80;0.60;;;;;;;20.55;33.13;98086.39;1836291;77;28139;-56
2023/03/10 10:26:52;;;;;;;0.50;0.50;;;;;;;20.55;33.14;98076.02;1852847;76;28049;-57
2023/03/10 10:29:45;;;;;;;0.70;0.60;;;;;;;20.55;33.14;98070.55;1856880;77;28189;-59
2023/03/10 10:32:31;;;;;;;0.70;0.70;;;;;;;20.59;33.08;98077.14;1847772;76;28222;-57
2023/03/10 10:35:23;;;;;;;0.80;0.80;;;;;;;20.59;33.06;98081.23;1868661;76;28219;-53
2023/03/10 10:38:14;;;;;;;0.70;0.70;;;;;;;20.61;33.03;98084.52;1854090;76;28194;-54
2023/03/10 10:41:06;;;;;;;0.70;0.70;;;;;;;20.62;33.02;98073.91;1846878;77;28191;-57
2023/03/10 10:43:57;;;;;;;0.68;0.68;;;;;;;20.62;33.01;98080.73;1847030;77;28191;-56
2023/03/10 10:46:57;;;;;;;0.78;0.78;;;;;;;20.61;33.00;98104.45;1857579;76;28461;-50
2023/03/10 10:49:45;;;;;;;0.70;0.70;;;;;;;20.62;33.00;98111.58;1866978;75;28126;-54
2023/03/10 10:52:34;;;;;;;0.90;0.90;;;;;;;20.64;32.99;98116.23;1864844;75;28107;-56
2023/03/10 10:55:26;;;;;;;0.70;0.70;;;;;;;20.67;32.97;98138.09;1884476;75;28066;-53
2023/03/10 10:58:27;;;;;;;0.68;0.68;;;;;;;20.67;32.94;98129.91;1883014;75;28043;-53
2023/03/10 11:01:16;;;;;;;0.80;0.80;;;;;;;20.65;32.95;98135.59;1852634;77;28223;-55
2023/03/10 11:04:07;;;;;;;1.03;0.97;;;;;;;20.64;32.98;98150.33;1867582;75;28137;-55
2023/03/10 11:07:11;;;;;;;0.90;0.90;;;;;;;20.63;32.98;98147.88;1862622;75;28174;-55
2023/03/10 11:10:00;;;;;;;0.80;0.80;;;;;;;20.65;32.96;98150.60;1874098;75;28127;-52
2023/03/10 11:12:55;;;;;;;0.80;0.80;;;;;;;20.62;33.02;98140.22;1873698;75;28091;-54
2023/03/10 11:16:04;;;;;;;0.70;0.70;;;;;;;20.64;32.99;98145.41;1871473;75;28117;-52
2023/03/10 11:18:57;;;;;;;0.93;0.85;;;;;;;20.66;32.96;98154.99;1870203;75;28087;-55
2023/03/10 11:21:48;;;;;;;0.90;0.90;;;;;;;20.64;32.98;98161.25;1884452;75;28183;-53
2023/03/10 11:24:40;;;;;;;0.75;0.75;;;;;;;20.65;32.95;98154.70;1862946;75;28105;-56
2023/03/10 11:27:37;;;;;;;1.20;1.00;;;;;;;20.68;32.97;98151.20;1860838;75;33172;-55
2023/03/10 11:30:33;;;;;;;1.00;1.00;;;;;;;20.64;32.98;98138.06;1872624;75;28091;-55
2023/03/10 11:33:28;;;;;;;1.00;1.00;;;;;;;20.65;32.95;98152.53;1867949;75;28234;-54
2023/03/10 11:36:19;;;;;;;1.10;1.00;;;;;;;20.67;32.96;98153.09;1864737;75;28068;-56
2023/03/10 11:39:16;;;;;;;0.85;0.85;;;;;;;20.68;32.94;98155.30;1877403;75;28633;-55
2023/03/10 11:42:16;;;;;;;0.90;0.90;;;;;;;20.65;32.98;98153.89;1869779;75;28206;-55
2023/03/10 11:45:25;;;;;;;0.90;0.90;;;;;;;20.66;32.95;98159.09;1874057;75;28149;-55
2023/03/10 11:48:22;;;;;;;1.00;1.00;;;;;;;20.65;33.00;98177.09;1868045;75;28224;-53
2023/03/10 11:51:19;;;;;;;1.00;1.00;;;;;;;20.62;33.01;98163.94;1835856;76;28393;-55
2023/03/10 11:54:32;;;;;;;0.80;0.80;;;;;;;20.65;32.99;98188.80;1863849;75;28090;-54
2023/03/10 11:57:23;;;;;;;0.78;0.78;;;;;;;20.66;33.00;98188.27;1863686;75;28067;-57
2023/03/10 12:00:23;;;;;;;0.88;0.88;;;;;;;20.65;32.99;98193.45;1863146;75;28553;-51
2023/03/10 12:03:20;;;;;;;0.80;0.80;;;;;;;20.67;32.97;98192.66;1860487;75;28250;-54
2023/03/10 12:06:12;;;;;;;1.12;1.12;;;;;;;20.67;32.95;98194.02;1872413;75;28091;-56
2023/03/10 12:09:02;;;;;;;0.90;0.90;;;;;;;20.68;32.95;98186.67;1869326;75;28269;-53
2023/03/10 12:11:52;;;;;;;1.52;1.22;;;;;;;20.68;32.96;98192.92;1861965;75;28107;-54
2023/03/10 12:14:43;;;;;;;1.02;1.02;;;;;;;20.68;32.94;98195.66;1862984;75;28314;-54
2023/03/10 12:17:32;;;;;;;0.93;0.93;;;;;;;20.68;32.92;98195.13;1863932;75;28336;-53
2023/03/10 12:20:24;;;;;;;1.17;1.10;;;;;;;20.71;32.88;98185.61;1794535;78;28260;-52
2023/03/10 12:23:24;;;;;;;1.10;1.10;;;;;;;20.72;32.85;98198.19;1804458;78;28336;-55
2023/03/10 12:26:13;;;;;;;1.10;1.10;;;;;;;20.70;32.88;98204.97;1811157;78;28445;-52
2023/03/10 12:29:23;;;;;;;1.12;1.02;;;;;;;20.72;32.88;98205.02;1814956;78;28382;-55
2023/03/10 12:32:46;;;;;;;1.27;1.17;;;;;;;20.72;32.86;98191.90;1813421;78;28253;-56
2023/03/10 12:35:41;;;;;;;1.40;1.20;;;;;;;20.68;32.85;98183.94;1807495;78;28315;-54
2023/03/10 12:38:49;;;;;;;1.30;1.20;;;;;;;20.68;32.89;98181.21;1813546;78;28861;-56
2023/03/10 12:41:47;;;;;;;1.10;1.10;;;;;;;20.65;32.95;98176.52;1834878;77;28145;-57
2023/03/10 12:44:54;;;;;;;0.93;0.93;;;;;;;20.64;32.96;98174.06;1802378;78;28274;-57
2023/03/10 12:47:55;;;;;;;1.10;1.10;;;;;;;20.66;32.89;98175.45;1813348;78;28306;-54
2023/03/10 12:51:05;;;;;;;1.10;1.10;;;;;;;20.68;32.92;98182.84;1817941;78;28381;-55
2023/03/10 12:54:08;;;;;;;1.17;1.07;;;;;;;20.70;32.88;98185.31;1831597;77;28602;-56
2023/03/10 12:57:02;;;;;;;1.57;1.27;;;;;;;20.67;32.91;98183.11;1863440;76;28213;-56
2023/03/10 12:59:57;;;;;;;1.20;1.10;;;;;;;20.66;32.89;98186.37;1858547;76;28120;-52
2023/03/10 13:03:00;;;;;;;1.02;1.02;;;;;;;20.71;32.85;98187.50;1855163;76;28210;-54
2023/03/10 13:06:00;;;;;;;1.15;1.15;;;;;;;20.70;32.85;98176.32;1869019;76;28143;-55
2023/03/10 13:08:58;;;;;;;1.20;1.10;;;;;;;20.72;32.83;98171.43;1836124;76;28117;-53
2023/03/10 13:11:58;;;;;;;1.05;1.05;;;;;;;20.71;32.80;98175.22;1847807;76;28812;-54
2023/03/10 13:14:50;;;;;;;1.20;1.10;;;;;;;20.64;32.80;98163.98;1848173;76;28203;-55
2023/03/10 13:17:38;;;;;;;1.05;1.05;;;;;;;20.74;32.75;98165.17;1847599;76;28189;-54
2023/03/10 13:20:27;;;;;;;0.90;0.90;;;;;;;20.74;32.78;98167.91;1869190;76;28175;-53
2023/03/10 13:23:33;;;;;;;1.07;1.07;;;;;;;20.76;32.77;98176.66;1848466;76;28077;-55
2023/03/10 13:26:23;;;;;;;1.35;1.10;;;;;;;20.75;32.77;98179.12;1860177;76;28259;-50
2023/03/10 13:29:17;;;;;;;1.40;1.30;;;;;;;20.75;32.78;98192.77;1841416;76;28239;-52